createdAt,value
2018-09-27T00:02:24.575Z,4.87
2018-09-27T00:04:54.884Z,5.28
2018-09-27T00:07:29.944Z,5.03
2018-09-27T00:10:03.994Z,5.45
2018-09-27T00:12:35.824Z,6.28
2018-09-27T00:15:05.652Z,5.80
2018-09-27T00:17:35.558Z,5.85
2018-09-27T00:20:06.590Z,5.30
2018-09-27T00:22:48.812Z,5.42
2018-09-27T00:25:18.700Z,5.87
2018-09-27T00:27:49.512Z,6.50
2018-09-27T00:30:19.328Z,5.45
2018-09-27T00:32:49.176Z,5.83
2018-09-27T00:35:18.948Z,6.12
2018-09-27T00:37:52.488Z,5.80
2018-09-27T00:40:27.352Z,5.40
2018-09-27T00:42:57.348Z,5.92
2018-09-27T00:45:27.620Z,5.75
2018-09-27T00:47:57.431Z,5.40
2018-09-27T00:50:27.331Z,6.37
2018-09-27T00:52:57.136Z,6.12
2018-09-27T00:55:26.987Z,6.12
2018-09-27T00:57:56.795Z,5.75
2018-09-27T01:00:27.620Z,6.53
2018-09-27T01:02:57.432Z,6.55
2018-09-27T01:05:27.260Z,5.80
2018-09-27T01:07:57.072Z,5.83
2018-09-27T01:10:30.267Z,6.00
2018-09-27T01:13:01.829Z,5.50
2018-09-27T01:15:33.685Z,6.72
2018-09-27T01:18:03.512Z,6.50
2018-09-27T01:20:40.076Z,6.10
2018-09-27T01:23:09.983Z,6.25
2018-09-27T01:25:39.751Z,6.60
2018-09-27T01:28:12.871Z,6.95
2018-09-27T01:30:42.670Z,6.55
2018-09-27T01:33:12.477Z,5.65
2018-09-27T01:35:46.403Z,7.17
2018-09-27T01:38:16.215Z,5.70
2018-09-27T01:40:45.991Z,6.08
2018-09-27T01:43:15.808Z,5.90
2018-09-27T01:45:47.687Z,6.15
2018-09-27T01:48:20.655Z,5.92
2018-09-27T01:50:50.452Z,7.10
2018-09-27T01:53:21.315Z,6.95
2018-09-27T01:55:52.138Z,7.20
2018-09-27T01:58:21.940Z,7.05
2018-09-27T02:00:52.823Z,7.03
2018-09-27T02:03:26.292Z,6.42
2018-09-27T02:05:56.111Z,8.38
2018-09-27T02:08:26.955Z,7.00
2018-09-27T02:10:56.732Z,8.15
2018-09-27T02:13:27.619Z,6.05
2018-09-27T02:15:58.444Z,7.20
2018-09-27T02:18:31.724Z,7.30
2018-09-27T02:21:02.544Z,6.67
2018-09-27T02:23:35.431Z,7.50
2018-09-27T02:26:05.223Z,7.45
2018-09-27T02:28:39.260Z,7.33
2018-09-27T02:31:09.299Z,7.10
2018-09-27T02:33:39.176Z,6.33
2018-09-27T02:36:10.028Z,6.25
2018-09-27T02:38:44.044Z,6.53
2018-09-27T02:41:13.984Z,8.00
2018-09-27T02:43:43.855Z,7.35
2018-09-27T02:46:14.143Z,8.13
2018-09-27T02:48:44.036Z,7.12
2018-09-27T02:51:14.886Z,6.60
2018-09-27T02:53:44.775Z,6.70
2018-09-27T02:56:15.603Z,6.85
2018-09-27T02:58:45.409Z,6.72
2018-09-27T03:01:20.419Z,7.55
2018-09-27T03:03:51.275Z,6.87
2018-09-27T03:06:21.155Z,8.00
2018-09-27T03:08:52.071Z,7.35
2018-09-27T03:11:21.919Z,6.58
2018-09-27T03:13:52.891Z,6.85
2018-09-27T03:16:22.715Z,6.60
2018-09-27T03:18:53.500Z,6.87
2018-09-27T03:21:23.372Z,6.15
2018-09-27T03:23:53.255Z,6.60
2018-09-27T03:26:28.220Z,6.45
2018-09-27T03:29:01.139Z,5.85
2018-09-27T03:31:34.072Z,6.95
2018-09-27T03:34:03.939Z,6.10
2018-09-27T03:36:33.901Z,6.30
2018-09-27T03:39:04.736Z,7.10
2018-09-27T03:41:34.679Z,6.92
2018-09-27T03:44:06.143Z,7.60
2018-09-27T03:46:39.168Z,7.10
2018-09-27T03:49:12.176Z,7.92
2018-09-27T03:51:42.104Z,8.03
2018-09-27T03:54:11.983Z,7.65
2018-09-27T03:56:42.826Z,7.42
2018-09-27T03:59:12.605Z,7.33
2018-09-27T04:01:44.816Z,7.40
2018-09-27T04:04:14.712Z,7.95
2018-09-27T04:06:48.235Z,7.78
2018-09-27T04:09:18.116Z,7.70
2018-09-27T04:11:47.955Z,7.17
2018-09-27T04:14:17.887Z,10.85
2018-09-27T04:16:47.755Z,9.38
2018-09-27T04:19:18.585Z,14.15
2018-09-27T04:21:52.389Z,9.10
2018-09-27T04:24:24.159Z,8.53
2018-09-27T04:26:54.959Z,8.30
2018-09-27T04:29:24.779Z,8.88
2018-09-27T04:31:54.653Z,8.15
2018-09-27T04:34:24.561Z,7.70
2018-09-27T04:36:54.355Z,7.53
2018-09-27T04:39:24.155Z,9.00
2018-09-27T04:41:54.984Z,8.20
2018-09-27T04:44:24.807Z,9.60
2018-09-27T04:46:54.627Z,8.63
2018-09-27T04:49:24.558Z,8.48
2018-09-27T04:51:54.416Z,10.00
2018-09-27T04:54:30.046Z,8.75
2018-09-27T04:57:05.530Z,9.95
2018-09-27T04:59:35.411Z,9.85
2018-09-27T05:02:07.291Z,9.25
2018-09-27T05:04:38.111Z,9.18
2018-09-27T05:07:20.060Z,9.98
2018-09-27T05:09:49.936Z,8.15
2018-09-27T05:12:20.812Z,8.63
2018-09-27T05:14:51.575Z,9.53
2018-09-27T05:17:21.343Z,9.00
2018-09-27T05:19:52.140Z,9.08
2018-09-27T05:22:23.944Z,8.78
2018-09-27T05:24:53.807Z,8.48
2018-09-27T05:27:24.690Z,8.95
2018-09-27T05:29:54.435Z,8.38
2018-09-27T05:32:25.319Z,9.30
2018-09-27T05:34:55.095Z,10.60
2018-09-27T05:37:43.852Z,10.08
2018-09-27T05:40:14.715Z,9.43
2018-09-27T05:42:53.951Z,9.40
2018-09-27T05:45:23.751Z,10.13
2018-09-27T05:47:53.591Z,9.53
2018-09-27T05:50:23.359Z,10.48
2018-09-27T05:52:54.192Z,10.60
2018-09-27T05:55:27.389Z,9.85
2018-09-27T05:58:02.347Z,11.25
2018-09-27T06:00:33.224Z,11.63
2018-09-27T06:03:07.092Z,10.28
2018-09-27T06:05:37.896Z,10.30
2018-09-27T06:08:11.740Z,9.88
2018-09-27T06:10:47.164Z,11.97
2018-09-27T06:13:20.559Z,10.75
2018-09-27T06:15:51.379Z,10.78
2018-09-27T06:18:22.271Z,10.50
2018-09-27T06:20:53.051Z,11.38
2018-09-27T06:23:24.915Z,11.85
2018-09-27T06:25:55.778Z,9.68
2018-09-27T06:28:32.675Z,9.78
2018-09-27T06:31:17.039Z,9.90
2018-09-27T06:33:47.887Z,9.23
2018-09-27T06:36:17.735Z,8.10
2018-09-27T06:38:48.523Z,7.47
2018-09-27T06:41:18.304Z,7.53
2018-09-27T06:43:49.135Z,7.60
2018-09-27T06:46:19.967Z,7.00
2018-09-27T06:48:52.916Z,7.80
2018-09-27T06:51:34.559Z,7.43
2018-09-27T06:54:04.411Z,7.47
2018-09-27T06:56:34.200Z,7.40
2018-09-27T06:59:04.040Z,7.30
2018-09-27T07:01:34.871Z,6.37
2018-09-27T07:04:05.722Z,7.27
2018-09-27T07:06:35.524Z,7.40
2018-09-27T07:09:11.675Z,7.50
2018-09-27T07:11:46.903Z,7.80
2018-09-27T07:14:22.102Z,7.47
2018-09-27T07:16:51.890Z,8.33
2018-09-27T07:19:25.479Z,8.03
2018-09-27T07:22:00.294Z,8.87
2018-09-27T07:24:31.135Z,8.50
2018-09-27T07:27:02.953Z,9.07
2018-09-27T07:29:34.750Z,8.57
2018-09-27T07:32:04.548Z,9.47
2018-09-27T07:34:35.402Z,9.60
2018-09-27T07:37:12.231Z,8.97
2018-09-27T07:39:42.103Z,8.47
2018-09-27T07:42:11.955Z,8.20
2018-09-27T07:44:41.918Z,8.50
2018-09-27T07:47:12.671Z,8.50
2018-09-27T07:49:42.463Z,9.07
2018-09-27T07:52:12.291Z,9.73
2018-09-27T07:54:42.480Z,9.27
2018-09-27T07:57:15.825Z,9.00
2018-09-27T07:59:45.611Z,8.90
2018-09-27T08:02:15.424Z,7.93
2018-09-27T08:04:45.219Z,9.30
2018-09-27T08:07:16.319Z,9.40
2018-09-27T08:09:46.099Z,9.37
2018-09-27T08:12:17.863Z,8.70
2018-09-27T08:14:47.643Z,8.90
2018-09-27T08:17:23.096Z,8.00
2018-09-27T08:19:52.791Z,8.50
2018-09-27T08:22:25.823Z,9.53
2018-09-27T08:24:56.615Z,8.30
2018-09-27T08:27:28.431Z,9.80
2018-09-27T08:29:58.299Z,9.20
2018-09-27T08:32:31.318Z,8.60
2018-09-27T08:35:01.107Z,9.80
2018-09-27T08:37:34.502Z,8.90
2018-09-27T08:40:04.356Z,9.40
2018-09-27T08:42:34.231Z,9.47
2018-09-27T08:45:04.160Z,8.47
2018-09-27T08:47:33.842Z,10.03
2018-09-27T08:50:08.287Z,10.30
2018-09-27T08:52:38.083Z,9.17
2018-09-27T08:55:07.988Z,9.27
2018-09-27T08:57:38.799Z,9.10
2018-09-27T09:00:11.711Z,10.10
2018-09-27T09:02:42.571Z,9.03
2018-09-27T09:05:21.843Z,9.90
2018-09-27T09:07:52.611Z,10.23
2018-09-27T09:10:22.407Z,9.53
2018-09-27T09:12:53.242Z,9.30
2018-09-27T09:15:25.041Z,9.13
2018-09-27T09:17:58.035Z,9.90
2018-09-27T09:20:28.859Z,11.60
2018-09-27T09:22:58.655Z,10.73
2018-09-27T09:25:28.496Z,12.37
2018-09-27T09:28:01.771Z,11.13
2018-09-27T09:30:34.843Z,12.73
2018-09-27T09:33:07.739Z,11.40
2018-09-27T09:35:44.203Z,11.33
2018-09-27T09:38:17.511Z,10.83
2018-09-27T09:40:47.286Z,11.50
2018-09-27T09:43:17.063Z,12.30
2018-09-27T09:45:46.899Z,11.10
2018-09-27T09:48:16.697Z,11.30
2018-09-27T09:50:52.508Z,10.80
2018-09-27T09:53:23.326Z,10.30
2018-09-27T09:55:53.114Z,11.57
2018-09-27T09:58:22.942Z,10.93
2018-09-27T10:00:53.815Z,11.70
2018-09-27T10:03:30.091Z,10.90
2018-09-27T10:05:59.934Z,11.00
2018-09-27T10:08:29.794Z,8.73
2018-09-27T10:11:11.606Z,9.93
2018-09-27T10:13:41.339Z,9.60
2018-09-27T10:16:11.183Z,9.87
2018-09-27T10:18:40.967Z,7.10
2018-09-27T10:21:14.626Z,8.87
2018-09-27T10:23:52.022Z,6.63
2018-09-27T10:26:22.733Z,7.90
2018-09-27T10:28:52.695Z,8.57
2018-09-27T10:31:22.470Z,8.20
2018-09-27T10:33:52.215Z,7.80
2018-09-27T10:36:22.971Z,7.70
2018-09-27T10:38:52.787Z,7.57
2018-09-27T10:41:27.242Z,6.37
2018-09-27T10:43:58.130Z,6.37
2018-09-27T10:46:29.927Z,5.30
2018-09-27T10:49:00.843Z,5.77
2018-09-27T10:51:34.498Z,6.20
2018-09-27T10:54:04.379Z,6.53
2018-09-27T10:56:35.243Z,5.83
2018-09-27T10:59:05.114Z,6.90
2018-09-27T11:01:36.006Z,6.83
2018-09-27T11:04:08.973Z,5.97
2018-09-27T11:06:50.674Z,7.97
2018-09-27T11:09:20.579Z,7.20
2018-09-27T11:11:52.314Z,7.93
2018-09-27T11:14:26.238Z,8.10
2018-09-27T11:16:58.434Z,7.50
2018-09-27T11:19:29.222Z,8.50
2018-09-27T11:22:00.701Z,7.50
2018-09-27T11:24:34.079Z,8.33
2018-09-27T11:27:03.930Z,7.70
2018-09-27T11:29:39.890Z,7.77
2018-09-27T11:32:15.155Z,7.57
2018-09-27T11:34:48.723Z,8.17
2018-09-27T11:37:19.555Z,8.10
2018-09-27T11:39:53.039Z,9.23
2018-09-27T11:42:23.239Z,8.30
2018-09-27T11:44:52.987Z,8.57
2018-09-27T11:47:23.768Z,8.30
2018-09-27T11:49:53.639Z,7.30
2018-09-27T11:52:23.507Z,7.77
2018-09-27T11:54:53.343Z,7.97
2018-09-27T11:57:24.175Z,7.50
2018-09-27T11:59:54.147Z,7.17
2018-09-27T12:02:26.023Z,7.53
2018-09-27T12:04:57.864Z,7.33
2018-09-27T12:07:29.797Z,6.97
2018-09-27T12:09:59.739Z,7.37
2018-09-27T12:12:30.639Z,8.03
2018-09-27T12:15:02.583Z,7.00
2018-09-27T12:17:33.499Z,7.00
2018-09-27T12:20:03.202Z,7.27
2018-09-27T12:22:34.067Z,7.00
2018-09-27T12:25:03.919Z,6.10
2018-09-27T12:27:33.771Z,6.87
2018-09-27T12:30:04.875Z,6.60
2018-09-27T12:32:35.615Z,5.77
2018-09-27T12:35:07.403Z,6.67
2018-09-27T12:37:40.786Z,5.60
2018-09-27T12:40:13.914Z,6.50
2018-09-27T12:42:43.885Z,7.60
2018-09-27T12:45:13.708Z,6.77
2018-09-27T12:47:43.426Z,6.53
2018-09-27T12:50:14.252Z,6.70
2018-09-27T12:52:46.158Z,6.57
2018-09-27T12:55:15.940Z,7.40
2018-09-27T12:57:46.694Z,6.00
2018-09-27T13:00:16.590Z,7.20
2018-09-27T13:02:51.426Z,7.37
2018-09-27T13:05:21.563Z,6.70
2018-09-27T13:07:55.258Z,7.20
2018-09-27T13:10:26.015Z,6.20
2018-09-27T13:12:55.919Z,5.37
2018-09-27T13:15:25.626Z,5.50
2018-09-27T13:17:55.474Z,5.73
2018-09-27T13:20:25.307Z,5.00
2018-09-27T13:22:56.061Z,4.33
2018-09-27T13:25:28.819Z,5.53
2018-09-27T13:28:02.832Z,4.17
2018-09-27T13:30:32.649Z,5.00
2018-09-27T13:33:02.493Z,4.33
2018-09-27T13:35:32.286Z,5.67
2018-09-27T13:38:10.546Z,5.70
2018-09-27T13:40:41.402Z,5.27
2018-09-27T13:43:11.253Z,6.10
2018-09-27T13:45:44.398Z,4.83
2018-09-27T13:48:15.202Z,4.03
2018-09-27T13:50:50.464Z,4.60
2018-09-27T13:53:22.226Z,5.00
2018-09-27T13:55:56.475Z,4.43
2018-09-27T13:58:27.263Z,3.73
2018-09-27T14:00:59.140Z,4.00
2018-09-27T14:03:39.622Z,5.23
2018-09-27T14:06:13.828Z,5.83
2018-09-27T14:08:43.623Z,6.00
2018-09-27T14:11:17.295Z,6.30
2018-09-27T14:13:50.427Z,4.73
2018-09-27T14:16:21.191Z,5.53
2018-09-27T14:18:51.994Z,5.80
2018-09-27T14:21:22.818Z,5.60
2018-09-27T14:23:52.631Z,5.60
2018-09-27T14:26:22.417Z,6.10
2018-09-27T14:28:52.165Z,4.87
2018-09-27T14:31:22.206Z,5.23
2018-09-27T14:33:52.997Z,5.50
2018-09-27T14:36:23.810Z,4.33
2018-09-27T14:38:56.956Z,4.37
2018-09-27T14:41:26.734Z,5.00
2018-09-27T14:43:56.537Z,5.00
2018-09-27T14:46:26.369Z,5.13
2018-09-27T14:49:05.624Z,5.27
2018-09-27T14:51:37.384Z,4.73
2018-09-27T14:54:07.336Z,4.73
2018-09-27T14:56:39.089Z,4.20
2018-09-27T14:59:08.894Z,4.50
2018-09-27T15:01:45.209Z,4.30
2018-09-27T15:04:14.996Z,4.20
2018-09-27T15:06:46.900Z,5.33
2018-09-27T15:09:16.560Z,3.80
2018-09-27T15:11:46.308Z,4.97
2018-09-27T15:14:28.549Z,6.07
2018-09-27T15:17:03.348Z,4.03
2018-09-27T15:19:34.120Z,4.60
2018-09-27T15:22:03.898Z,4.20
2018-09-27T15:24:34.766Z,4.23
2018-09-27T15:27:04.604Z,4.10
2018-09-27T15:29:35.426Z,4.00
2018-09-27T15:32:05.287Z,3.93
2018-09-27T15:34:40.215Z,3.60
2018-09-27T15:37:10.178Z,4.80
2018-09-27T15:39:50.524Z,4.17
2018-09-27T15:42:24.874Z,3.20
2018-09-27T15:44:58.791Z,3.60
2018-09-27T15:47:34.184Z,4.87
2018-09-27T15:50:06.287Z,4.40
2018-09-27T15:52:36.154Z,4.17
2018-09-27T15:55:07.060Z,4.70
2018-09-27T15:57:39.544Z,4.30
2018-09-27T16:00:21.940Z,4.07
2018-09-27T16:02:51.787Z,4.20
2018-09-27T16:05:22.980Z,4.43
2018-09-27T16:07:53.320Z,4.27
2018-09-27T16:10:26.831Z,4.60
2018-09-27T16:13:04.079Z,4.53
2018-09-27T16:15:42.148Z,4.03
2018-09-27T16:18:15.919Z,4.40
2018-09-27T16:20:50.426Z,4.57
2018-09-27T16:23:20.326Z,4.10
2018-09-27T16:25:50.039Z,3.93
2018-09-27T16:28:24.835Z,4.87
2018-09-27T16:30:54.698Z,3.30
2018-09-27T16:33:24.625Z,4.17
2018-09-27T16:35:55.454Z,3.97
2018-09-27T16:38:27.221Z,4.83
2018-09-27T16:40:57.021Z,4.00
2018-09-27T16:43:28.201Z,3.93
2018-09-27T16:46:00.581Z,4.30
2018-09-27T16:48:31.369Z,4.17
2018-09-27T16:51:04.666Z,5.53
2018-09-27T16:53:38.626Z,5.00
2018-09-27T16:56:11.045Z,7.10
2018-09-27T16:58:41.068Z,5.67
2018-09-27T17:01:11.913Z,5.10
2018-09-27T17:03:43.770Z,4.83
2018-09-27T17:06:13.586Z,5.03
2018-09-27T17:08:43.381Z,5.97
2018-09-27T17:11:13.284Z,5.70
2018-09-27T17:13:43.009Z,5.83
2018-09-27T17:16:18.531Z,5.50
2018-09-27T17:18:50.444Z,4.80
2018-09-27T17:21:25.687Z,4.83
2018-09-27T17:23:57.539Z,4.80
2018-09-27T17:26:28.359Z,4.70
2018-09-27T17:29:08.659Z,4.70
2018-09-27T17:31:43.058Z,4.00
2018-09-27T17:34:12.851Z,5.60
2018-09-27T17:36:47.823Z,4.50
2018-09-27T17:39:21.718Z,4.60
2018-09-27T17:41:58.195Z,4.30
2018-09-27T17:44:34.640Z,4.03
2018-09-27T17:47:08.219Z,4.30
2018-09-27T17:50:01.334Z,4.37
2018-09-27T17:52:31.311Z,4.10
2018-09-27T17:55:02.139Z,5.00
2018-09-27T17:57:31.943Z,3.37
2018-09-27T18:00:03.859Z,3.90
2018-09-27T18:02:33.686Z,3.50
2018-09-27T18:05:18.815Z,4.00
2018-09-27T18:07:37.632Z,4.40
2018-09-27T18:10:08.285Z,5.87
2018-09-27T18:12:43.834Z,8.17
2018-09-27T18:15:15.670Z,11.20
2018-09-27T18:17:46.538Z,6.87
2018-09-27T18:20:16.362Z,5.07
2018-09-27T18:22:51.974Z,5.77
2018-09-27T18:25:23.638Z,5.60
2018-09-27T18:28:06.906Z,5.07
2018-09-27T18:30:37.826Z,5.70
2018-09-27T18:33:07.710Z,5.63
2018-09-27T18:35:38.514Z,5.10
2018-09-27T18:38:09.456Z,4.50
2018-09-27T18:40:45.490Z,4.23
2018-09-27T18:43:17.407Z,4.63
2018-09-27T18:45:48.241Z,5.03
2018-09-27T18:48:19.086Z,5.07
2018-09-27T18:50:50.638Z,4.07
2018-09-27T18:53:25.038Z,5.30
2018-09-27T18:55:55.890Z,5.77
2018-09-27T18:58:26.718Z,4.67
2018-09-27T19:00:59.678Z,5.37
2018-09-27T19:03:30.545Z,5.07
2018-09-27T19:06:02.374Z,3.97
2018-09-27T19:08:32.182Z,3.77
2018-09-27T19:11:05.722Z,4.17
2018-09-27T19:13:38.586Z,4.33
2018-09-27T19:16:08.494Z,5.60
2018-09-27T19:18:38.318Z,6.10
2018-09-27T19:21:13.394Z,5.23
2018-09-27T19:23:43.270Z,4.73
2018-09-27T19:26:16.366Z,3.80
2018-09-27T19:28:46.147Z,4.70
2018-09-27T19:31:18.054Z,4.10
2018-09-27T19:33:49.066Z,4.20
2018-09-27T19:36:24.702Z,4.33
2018-09-27T19:38:56.577Z,4.20
2018-09-27T19:41:28.454Z,4.10
2018-09-27T19:44:02.338Z,4.80
2018-09-27T19:46:32.182Z,3.60
2018-09-27T19:49:02.997Z,4.13
2018-09-27T19:51:39.442Z,4.53
2018-09-27T19:54:13.946Z,4.40
2018-09-27T19:56:47.474Z,4.60
2018-09-27T19:59:18.317Z,4.37
2018-09-27T20:01:50.182Z,4.70
2018-09-27T20:04:19.976Z,4.30
2018-09-27T20:06:49.844Z,4.90
2018-09-27T20:09:19.723Z,5.77
2018-09-27T20:11:50.554Z,5.40
2018-09-27T20:14:22.402Z,4.93
2018-09-27T20:16:55.950Z,5.20
2018-09-27T20:19:25.726Z,5.00
2018-09-27T20:21:56.591Z,5.87
2018-09-27T20:24:44.634Z,5.60
2018-09-27T20:27:16.446Z,5.40
2018-09-27T20:29:49.617Z,5.70
2018-09-27T20:32:19.506Z,6.10
2018-09-27T20:34:49.352Z,6.20
2018-09-27T20:37:20.210Z,5.83
2018-09-27T20:39:50.066Z,5.83
2018-09-27T20:42:21.870Z,6.63
2018-09-27T20:45:02.046Z,7.03
2018-09-27T20:47:32.894Z,11.20
2018-09-27T20:50:03.758Z,7.30
2018-09-27T20:52:34.782Z,7.07
2018-09-27T20:55:08.452Z,6.37
2018-09-27T20:57:40.298Z,6.50
2018-09-27T21:00:11.182Z,6.60
2018-09-27T21:02:43.026Z,6.80
2018-09-27T21:05:13.858Z,6.50
2018-09-27T21:07:44.785Z,6.77
2018-09-27T21:10:16.617Z,6.00
2018-09-27T21:12:48.496Z,6.50
2018-09-27T21:15:24.146Z,7.93
2018-09-27T21:17:56.010Z,6.80
2018-09-27T21:20:46.965Z,6.73
2018-09-27T21:23:35.730Z,8.60
2018-09-27T21:26:05.555Z,6.70
2018-09-27T21:28:40.950Z,7.53
2018-09-27T21:31:10.869Z,6.50
2018-09-27T21:33:40.750Z,6.60
2018-09-27T21:36:11.598Z,7.27
2018-09-27T21:38:42.426Z,7.97
2018-09-27T21:41:14.335Z,6.83
2018-09-27T21:43:45.240Z,7.65
2018-09-27T21:46:16.084Z,7.92
2018-09-27T21:48:46.995Z,6.60
2018-09-27T21:51:18.905Z,7.53
2018-09-27T21:53:49.837Z,8.20
2018-09-27T21:56:21.681Z,7.65
2018-09-27T21:58:52.522Z,8.03
2018-09-27T22:01:23.486Z,8.05
2018-09-27T22:03:56.641Z,7.65
2018-09-27T22:06:27.498Z,7.67
2018-09-27T22:09:01.758Z,7.62
2018-09-27T22:11:36.661Z,8.25
2018-09-27T22:14:06.762Z,7.85
2018-09-27T22:16:36.641Z,8.25
2018-09-27T22:19:06.601Z,7.50
2018-09-27T22:21:37.523Z,8.73
2018-09-27T22:24:07.450Z,8.80
2018-09-27T22:26:38.566Z,8.05
2018-09-27T22:29:08.586Z,8.03
2018-09-27T22:31:44.594Z,9.05
2018-09-27T22:34:26.685Z,8.03
2018-09-27T22:36:57.558Z,8.45
2018-09-27T22:39:27.482Z,8.63
2018-09-27T22:42:00.350Z,8.60
2018-09-27T22:44:36.031Z,8.90
2018-09-27T22:47:09.470Z,8.55
2018-09-27T22:49:41.376Z,8.73
2018-09-27T22:52:12.314Z,9.10
2018-09-27T22:54:42.222Z,8.95
2018-09-27T22:57:15.378Z,8.20
2018-09-27T22:59:49.431Z,8.08
2018-09-27T23:02:21.270Z,8.25
2018-09-27T23:04:54.301Z,9.23
2018-09-27T23:07:25.194Z,8.90
2018-09-27T23:09:56.046Z,8.28
2018-09-27T23:12:28.835Z,8.35
2018-09-27T23:14:59.638Z,8.18
2018-09-27T23:17:30.514Z,7.37
2018-09-27T23:20:02.254Z,9.33
2018-09-27T23:22:43.134Z,8.40
2018-09-27T23:25:15.469Z,8.25
2018-09-27T23:27:47.329Z,7.62
2018-09-27T23:30:19.078Z,8.83
2018-09-27T23:32:49.981Z,8.55
2018-09-27T23:35:31.062Z,8.40
2018-09-27T23:38:10.749Z,8.40
2018-09-27T23:40:46.837Z,7.20
2018-09-27T23:43:16.717Z,8.50
2018-09-27T23:45:46.662Z,8.33
2018-09-27T23:48:21.677Z,6.58
2018-09-27T23:50:55.961Z,8.88
2018-09-27T23:53:26.805Z,8.35
2018-09-27T23:55:57.645Z,8.65
2018-09-27T23:58:28.573Z,8.93
